createdAt,value
2023-03-05T00:01:23.069Z,27.74
2023-03-05T00:03:54.866Z,30.43
2023-03-05T00:06:24.210Z,29.18
2023-03-05T00:08:53.578Z,27.92
2023-03-05T00:11:21.993Z,26.78
2023-03-05T00:13:53.140Z,24.14
2023-03-05T00:16:21.816Z,23.21
2023-03-05T00:18:50.096Z,22.99
2023-03-05T00:21:18.250Z,24.15
2023-03-05T00:23:46.317Z,28.89
2023-03-05T00:26:14.616Z,27.69
2023-03-05T00:28:43.189Z,27.71
2023-03-05T00:31:11.351Z,30.51
2023-03-05T00:33:39.486Z,28.13
2023-03-05T00:36:08.272Z,28.80
2023-03-05T00:38:36.815Z,27.88
2023-03-05T00:41:05.104Z,28.25
2023-03-05T00:43:33.225Z,28.40
2023-03-05T00:46:09.394Z,28.58
2023-03-05T00:48:37.823Z,28.28
2023-03-05T00:51:05.991Z,27.21
2023-03-05T00:53:34.155Z,27.23
2023-03-05T00:56:02.298Z,26.48
2023-03-05T00:58:30.512Z,26.94
2023-03-05T01:01:00.103Z,26.51
2023-03-05T01:03:30.042Z,26.05
2023-03-05T01:05:58.308Z,26.28
2023-03-05T01:08:26.523Z,26.75
2023-03-05T01:10:54.743Z,26.14
2023-03-05T01:13:23.022Z,27.23
2023-03-05T01:15:51.365Z,26.47
2023-03-05T01:18:19.946Z,26.53
2023-03-05T01:20:48.149Z,26.57
2023-03-05T01:23:16.542Z,26.92
2023-03-05T01:25:44.897Z,27.29
2023-03-05T01:28:12.894Z,27.42
2023-03-05T01:30:41.252Z,26.70
2023-03-05T01:33:09.425Z,26.11
2023-03-05T01:35:37.520Z,25.60
2023-03-05T01:38:05.985Z,26.76
2023-03-05T01:40:34.159Z,25.29
2023-03-05T01:43:24.457Z,25.65
2023-03-05T01:46:32.002Z,25.43
2023-03-05T01:49:12.241Z,26.70
2023-03-05T01:51:43.650Z,26.16
2023-03-05T01:54:12.745Z,25.95
2023-03-05T01:56:41.124Z,26.67
2023-03-05T01:59:09.187Z,26.66
2023-03-05T02:01:40.384Z,26.62
2023-03-05T02:04:10.413Z,27.16
2023-03-05T02:06:39.058Z,25.73
2023-03-05T02:09:07.323Z,26.95
2023-03-05T02:11:35.618Z,26.46
2023-03-05T02:14:04.388Z,25.92
2023-03-05T02:16:37.072Z,26.06
2023-03-05T02:19:07.904Z,26.01
2023-03-05T02:21:38.149Z,25.28
2023-03-05T02:24:06.715Z,26.40
2023-03-05T02:26:34.841Z,25.67
2023-03-05T02:29:03.172Z,26.03
2023-03-05T02:31:31.382Z,26.35
2023-03-05T02:33:59.613Z,26.57
2023-03-05T02:36:27.804Z,25.36
2023-03-05T02:38:57.289Z,25.65
2023-03-05T02:41:25.774Z,25.95
2023-03-05T02:43:54.967Z,24.62
2023-03-05T02:46:23.247Z,25.73
2023-03-05T02:48:51.422Z,25.27
2023-03-05T02:51:19.697Z,25.21
2023-03-05T02:53:48.488Z,25.09
2023-03-05T02:56:17.484Z,25.64
2023-03-05T02:58:45.964Z,25.53
2023-03-05T03:01:14.080Z,24.83
2023-03-05T03:03:42.365Z,25.62
2023-03-05T03:06:10.896Z,25.76
2023-03-05T03:08:39.062Z,24.66
2023-03-05T03:11:12.690Z,25.23
2023-03-05T03:13:41.255Z,25.28
2023-03-05T03:16:11.732Z,25.62
2023-03-05T03:18:39.757Z,25.68
2023-03-05T03:21:08.033Z,26.20
2023-03-05T03:23:36.090Z,26.34
2023-03-05T03:26:04.487Z,25.56
2023-03-05T03:28:32.551Z,25.30
2023-03-05T03:31:00.682Z,26.24
2023-03-05T03:33:29.007Z,26.18
2023-03-05T03:35:57.136Z,26.14
2023-03-05T03:38:25.350Z,25.54
2023-03-05T03:40:53.461Z,24.63
2023-03-05T03:43:21.595Z,26.59
2023-03-05T03:45:49.711Z,26.67
2023-03-05T03:48:18.361Z,26.97
2023-03-05T03:50:46.427Z,27.08
2023-03-05T03:53:14.719Z,27.56
2023-03-05T03:55:43.290Z,27.34
2023-03-05T03:58:11.372Z,27.86
2023-03-05T04:00:40.362Z,26.90
2023-03-05T04:03:09.058Z,27.21
2023-03-05T04:05:37.230Z,28.44
2023-03-05T04:08:06.009Z,28.16
2023-03-05T04:10:34.000Z,28.18
2023-03-05T04:13:02.071Z,27.42
2023-03-05T04:15:31.960Z,27.88
2023-03-05T04:18:00.352Z,27.65
2023-03-05T04:20:28.412Z,27.02
2023-03-05T04:22:56.605Z,27.82
2023-03-05T04:25:24.773Z,27.35
2023-03-05T04:27:52.814Z,27.73
2023-03-05T04:30:21.217Z,26.74
2023-03-05T04:32:49.295Z,26.65
2023-03-05T04:35:17.885Z,26.51
2023-03-05T04:37:46.041Z,27.80
2023-03-05T04:40:14.305Z,27.03
2023-03-05T04:42:42.582Z,26.96
2023-03-05T04:45:11.267Z,26.18
2023-03-05T04:47:39.552Z,25.29
2023-03-05T04:50:08.852Z,24.33
2023-03-05T04:52:40.399Z,24.27
2023-03-05T04:55:10.047Z,24.72
2023-03-05T04:57:38.199Z,24.83
2023-03-05T05:00:08.036Z,25.48
2023-03-05T05:02:36.176Z,25.92
2023-03-05T05:05:04.453Z,25.21
2023-03-05T05:07:33.035Z,25.64
2023-03-05T05:10:01.202Z,26.85
2023-03-05T05:12:30.928Z,27.02
2023-03-05T05:14:58.987Z,27.69
2023-03-05T05:17:28.229Z,27.52
2023-03-05T05:19:56.775Z,25.53
2023-03-05T05:22:24.815Z,25.79
2023-03-05T05:24:53.332Z,25.06
2023-03-05T05:27:21.818Z,25.41
2023-03-05T05:29:53.268Z,26.27
2023-03-05T05:32:22.564Z,24.96
2023-03-05T05:34:55.444Z,25.37
2023-03-05T05:37:23.634Z,25.23
2023-03-05T05:39:51.793Z,24.88
2023-03-05T05:42:23.612Z,23.83
2023-03-05T05:44:51.723Z,23.84
2023-03-05T05:47:19.824Z,23.79
2023-03-05T05:49:47.996Z,24.03
2023-03-05T05:52:16.086Z,23.47
2023-03-05T05:54:44.127Z,23.95
2023-03-05T05:57:12.304Z,23.69
2023-03-05T05:59:40.604Z,24.34
2023-03-05T06:02:09.089Z,22.89
2023-03-05T06:04:37.423Z,22.41
2023-03-05T06:07:05.609Z,21.46
2023-03-05T06:09:35.668Z,20.98
2023-03-05T06:12:04.419Z,21.11
2023-03-05T06:14:32.358Z,21.47
2023-03-05T06:17:00.450Z,21.07
2023-03-05T06:19:28.516Z,19.96
2023-03-05T06:21:56.909Z,19.51
2023-03-05T06:24:25.077Z,18.78
2023-03-05T06:26:53.254Z,17.90
2023-03-05T06:29:21.245Z,17.37
2023-03-05T06:31:49.294Z,17.18
2023-03-05T06:34:17.472Z,17.30
2023-03-05T06:36:45.738Z,17.01
2023-03-05T06:39:13.919Z,16.33
2023-03-05T06:41:41.940Z,15.54
2023-03-05T06:44:10.270Z,13.87
2023-03-05T06:46:39.361Z,13.94
2023-03-05T06:49:09.776Z,14.02
2023-03-05T06:51:39.199Z,13.83
2023-03-05T06:54:09.389Z,13.34
2023-03-05T06:56:38.130Z,12.68
2023-03-05T06:59:06.482Z,12.50
2023-03-05T07:01:34.848Z,12.11
2023-03-05T07:04:03.441Z,12.54
2023-03-05T07:06:35.719Z,12.73
2023-03-05T07:09:03.993Z,13.20
2023-03-05T07:11:32.472Z,12.70
2023-03-05T07:14:00.542Z,14.28
2023-03-05T07:16:30.883Z,13.68
2023-03-05T07:19:00.065Z,14.31
2023-03-05T07:21:29.298Z,13.77
2023-03-05T07:23:59.106Z,14.04
2023-03-05T07:26:27.297Z,13.67
2023-03-05T07:28:55.368Z,14.46
2023-03-05T07:31:27.436Z,14.34
2023-03-05T07:33:55.682Z,15.01
2023-03-05T07:36:23.981Z,14.48
2023-03-05T07:38:52.063Z,14.50
2023-03-05T07:41:21.252Z,14.83
2023-03-05T07:43:50.919Z,15.19
2023-03-05T07:46:19.776Z,14.60
2023-03-05T07:48:47.921Z,14.49
2023-03-05T07:51:18.263Z,14.27
2023-03-05T07:53:47.256Z,14.63
2023-03-05T07:56:39.227Z,14.66
2023-03-05T07:59:09.048Z,14.56
2023-03-05T08:01:37.452Z,14.56
2023-03-05T08:04:06.478Z,14.22
2023-03-05T08:06:34.587Z,14.50
2023-03-05T08:09:02.948Z,13.89
2023-03-05T08:11:31.075Z,14.21
2023-03-05T08:13:59.715Z,14.51
2023-03-05T08:16:27.957Z,14.16
2023-03-05T08:18:57.427Z,13.93
2023-03-05T08:21:29.367Z,14.28
2023-03-05T08:23:57.575Z,14.73
2023-03-05T08:26:27.480Z,15.96
2023-03-05T08:28:55.672Z,14.21
2023-03-05T08:31:24.482Z,13.04
2023-03-05T08:33:53.804Z,13.11
2023-03-05T08:36:22.091Z,13.27
2023-03-05T08:38:50.788Z,13.15
2023-03-05T08:41:19.109Z,12.62
2023-03-05T08:43:47.282Z,12.56
2023-03-05T08:46:15.995Z,12.21
2023-03-05T08:48:44.090Z,13.13
2023-03-05T08:51:17.141Z,12.26
2023-03-05T08:53:45.684Z,11.81
2023-03-05T08:56:14.452Z,11.30
2023-03-05T08:58:43.265Z,11.09
2023-03-05T09:01:11.370Z,11.46
2023-03-05T09:03:41.437Z,11.47
2023-03-05T09:06:10.324Z,11.55
2023-03-05T09:08:38.608Z,12.03
2023-03-05T09:11:07.896Z,12.09
2023-03-05T09:13:36.126Z,10.92
2023-03-05T09:16:06.651Z,11.08
2023-03-05T09:18:36.961Z,10.87
2023-03-05T09:21:08.808Z,11.05
2023-03-05T09:23:36.996Z,10.96
2023-03-05T09:26:09.194Z,11.29
2023-03-05T09:28:37.256Z,11.37
2023-03-05T09:31:05.620Z,11.37
2023-03-05T09:33:33.900Z,10.91
2023-03-05T09:36:02.237Z,10.87
2023-03-05T09:38:30.319Z,10.38
2023-03-05T09:41:03.743Z,10.76
2023-03-05T09:43:38.874Z,11.42
2023-03-05T09:46:26.607Z,10.80
2023-03-05T09:49:04.531Z,10.84
2023-03-05T09:51:35.583Z,10.19
2023-03-05T09:54:11.218Z,9.44
2023-03-05T09:56:42.149Z,9.92
2023-03-05T09:59:25.454Z,9.68
2023-03-05T10:01:53.516Z,10.09
2023-03-05T10:04:26.090Z,11.14
2023-03-05T10:06:57.372Z,10.28
2023-03-05T10:09:52.039Z,10.04
2023-03-05T10:12:45.828Z,10.38
2023-03-05T10:15:27.068Z,10.28
2023-03-05T10:18:25.274Z,10.69
2023-03-05T10:21:01.736Z,9.88
2023-03-05T10:24:00.118Z,11.37
2023-03-05T10:26:41.884Z,10.33
2023-03-05T10:29:58.132Z,12.52
2023-03-05T10:32:38.313Z,10.83
2023-03-05T10:35:25.303Z,9.60
2023-03-05T10:38:05.536Z,9.26
2023-03-05T10:40:56.866Z,9.24
2023-03-05T10:43:34.159Z,16.85
2023-03-05T10:46:03.020Z,13.48
2023-03-05T10:48:39.032Z,9.47
2023-03-05T10:51:12.401Z,9.56
2023-03-05T10:53:46.509Z,12.99
2023-03-05T10:56:14.790Z,9.46
2023-03-05T10:58:42.851Z,9.23
2023-03-05T11:01:10.837Z,9.65
2023-03-05T11:03:59.269Z,11.25
2023-03-05T11:06:29.630Z,9.76
2023-03-05T11:09:18.254Z,9.17
2023-03-05T11:12:15.514Z,9.90
2023-03-05T11:14:45.818Z,10.16
2023-03-05T11:17:28.859Z,9.41
2023-03-05T11:19:57.846Z,9.61
2023-03-05T11:22:26.019Z,9.62
2023-03-05T11:25:10.995Z,9.48
2023-03-05T11:27:51.591Z,9.70
2023-03-05T11:30:35.492Z,9.10
2023-03-05T11:33:17.792Z,9.39
2023-03-05T11:35:46.323Z,9.49
2023-03-05T11:38:26.254Z,9.89
2023-03-05T11:40:55.629Z,9.92
2023-03-05T11:43:24.965Z,9.63
2023-03-05T11:46:02.323Z,9.03
2023-03-05T11:48:32.962Z,9.14
2023-03-05T11:51:02.160Z,9.17
2023-03-05T11:53:32.335Z,9.32
2023-03-05T11:56:05.772Z,8.75
2023-03-05T11:59:05.123Z,9.96
2023-03-05T12:01:36.125Z,9.45
2023-03-05T12:04:04.118Z,8.98
2023-03-05T12:06:46.005Z,9.18
2023-03-05T12:09:16.736Z,8.81
2023-03-05T12:11:44.806Z,8.59
2023-03-05T12:14:23.814Z,8.69
2023-03-05T12:17:17.193Z,8.93
2023-03-05T12:20:19.055Z,9.40
2023-03-05T12:22:47.054Z,9.11
2023-03-05T12:25:35.180Z,9.12
2023-03-05T12:28:04.595Z,8.57
2023-03-05T12:30:35.806Z,8.71
2023-03-05T12:33:05.524Z,9.32
2023-03-05T12:35:37.137Z,8.53
2023-03-05T12:38:26.532Z,8.94
2023-03-05T12:41:20.780Z,9.06
2023-03-05T12:44:07.482Z,8.83
2023-03-05T12:46:39.467Z,9.05
2023-03-05T12:49:28.904Z,9.67
2023-03-05T12:51:59.315Z,10.55
2023-03-05T12:54:39.899Z,10.45
2023-03-05T12:57:19.083Z,10.36
2023-03-05T12:59:51.784Z,10.55
2023-03-05T13:02:31.844Z,10.07
2023-03-05T13:05:01.672Z,9.72
2023-03-05T13:07:29.686Z,10.07
2023-03-05T13:09:58.923Z,10.09
2023-03-05T13:12:28.112Z,13.16
2023-03-05T13:14:58.859Z,9.84
2023-03-05T13:17:35.325Z,10.11
2023-03-05T13:20:24.836Z,9.61
2023-03-05T13:23:07.908Z,9.81
2023-03-05T13:25:35.849Z,10.42
2023-03-05T13:28:15.307Z,11.28
2023-03-05T13:31:04.532Z,9.80
2023-03-05T13:33:34.189Z,9.91
2023-03-05T13:36:02.499Z,9.60
2023-03-05T13:38:40.685Z,9.45
2023-03-05T13:41:20.433Z,9.79
2023-03-05T13:43:52.703Z,10.61
2023-03-05T13:46:38.803Z,10.96
2023-03-05T13:49:24.372Z,11.23
2023-03-05T13:51:53.982Z,11.42
2023-03-05T13:54:23.378Z,11.49
2023-03-05T13:56:59.314Z,11.52
2023-03-05T13:59:29.766Z,12.36
2023-03-05T14:01:59.068Z,13.68
2023-03-05T14:04:46.249Z,12.69
2023-03-05T14:07:20.269Z,12.72
2023-03-05T14:09:49.600Z,12.83
2023-03-05T14:12:40.985Z,13.18
2023-03-05T14:15:29.175Z,12.86
2023-03-05T14:18:12.481Z,12.38
2023-03-05T14:20:42.451Z,13.54
2023-03-05T14:23:29.029Z,13.44
2023-03-05T14:26:20.527Z,12.80
2023-03-05T14:28:56.451Z,12.50
2023-03-05T14:31:25.198Z,13.54
2023-03-05T14:33:53.478Z,13.36
2023-03-05T14:36:26.034Z,13.72
2023-03-05T14:38:54.352Z,13.38
2023-03-05T14:41:41.440Z,13.69
2023-03-05T14:44:17.592Z,14.50
2023-03-05T14:46:49.980Z,13.89
2023-03-05T14:49:18.247Z,17.68
2023-03-05T14:51:46.629Z,17.02
2023-03-05T14:54:25.140Z,16.24
2023-03-05T14:56:53.330Z,16.51
2023-03-05T14:59:21.911Z,19.68
2023-03-05T15:01:51.140Z,17.42
2023-03-05T15:04:20.332Z,15.69
2023-03-05T15:06:51.009Z,16.11
2023-03-05T15:09:20.875Z,16.00
2023-03-05T15:11:49.216Z,16.51
2023-03-05T15:14:17.320Z,17.20
2023-03-05T15:16:46.150Z,17.26
2023-03-05T15:19:14.406Z,17.38
2023-03-05T15:21:42.729Z,16.94
2023-03-05T15:24:11.484Z,17.46
2023-03-05T15:26:39.999Z,16.44
2023-03-05T15:29:08.068Z,16.68
2023-03-05T15:31:38.938Z,16.27
2023-03-05T15:34:07.630Z,15.58
2023-03-05T15:36:35.780Z,15.44
2023-03-05T15:39:03.880Z,16.29
2023-03-05T15:41:31.990Z,16.58
2023-03-05T15:44:00.104Z,17.38
2023-03-05T15:46:28.525Z,16.98
2023-03-05T15:48:56.760Z,25.60
2023-03-05T15:51:25.041Z,14.44
2023-03-05T15:53:54.527Z,13.07
2023-03-05T15:56:22.596Z,14.43
2023-03-05T15:58:51.056Z,12.55
2023-03-05T16:01:20.472Z,11.36
2023-03-05T16:03:48.667Z,11.12
2023-03-05T16:06:20.734Z,11.87
2023-03-05T16:08:50.313Z,11.13
2023-03-05T16:11:19.319Z,11.80
2023-03-05T16:13:47.330Z,11.92
2023-03-05T16:16:15.480Z,11.78
2023-03-05T16:18:44.053Z,11.89
2023-03-05T16:21:12.147Z,13.14
2023-03-05T16:23:40.220Z,13.16
2023-03-05T16:26:10.669Z,12.13
2023-03-05T16:28:38.795Z,12.44
2023-03-05T16:31:06.848Z,11.89
2023-03-05T16:33:34.898Z,11.79
2023-03-05T16:36:23.596Z,11.91
2023-03-05T16:38:53.322Z,12.13
2023-03-05T16:41:23.255Z,11.98
2023-03-05T16:43:53.656Z,11.40
2023-03-05T16:46:22.009Z,11.63
2023-03-05T16:48:50.410Z,11.99
2023-03-05T16:51:20.021Z,11.94
2023-03-05T16:53:49.332Z,12.17
2023-03-05T16:56:17.500Z,11.49
2023-03-05T16:58:45.776Z,12.09
2023-03-05T17:01:19.454Z,12.61
2023-03-05T17:03:47.771Z,12.55
2023-03-05T17:06:21.064Z,11.76
2023-03-05T17:08:49.804Z,12.11
2023-03-05T17:11:17.892Z,12.02
2023-03-05T17:13:48.696Z,11.97
2023-03-05T17:16:18.220Z,10.90
2023-03-05T17:18:46.283Z,11.02
2023-03-05T17:21:14.487Z,10.99
2023-03-05T17:23:42.608Z,11.04
2023-03-05T17:26:12.680Z,11.40
2023-03-05T17:28:40.734Z,11.69
2023-03-05T17:31:09.000Z,11.96
2023-03-05T17:33:37.134Z,11.26
2023-03-05T17:36:05.753Z,11.24
2023-03-05T17:38:33.972Z,11.01
2023-03-05T17:41:02.048Z,10.33
2023-03-05T17:43:30.162Z,10.64
2023-03-05T17:46:00.885Z,10.79
2023-03-05T17:48:29.310Z,10.46
2023-03-05T17:50:57.366Z,10.44
2023-03-05T17:53:25.582Z,9.80
2023-03-05T17:55:53.638Z,10.49
2023-03-05T17:58:21.699Z,10.66
2023-03-05T18:00:49.741Z,10.21
2023-03-05T18:03:18.059Z,9.62
2023-03-05T18:05:46.330Z,9.41
2023-03-05T18:08:15.012Z,8.23
2023-03-05T18:10:43.091Z,7.87
2023-03-05T18:13:11.276Z,7.91
2023-03-05T18:15:47.495Z,8.39
2023-03-05T18:18:16.627Z,7.99
2023-03-05T18:20:44.941Z,8.34
2023-03-05T18:23:15.642Z,8.03
2023-03-05T18:25:44.626Z,7.25
2023-03-05T18:28:14.068Z,7.46
2023-03-05T18:30:42.852Z,7.03
2023-03-05T18:33:24.681Z,6.55
2023-03-05T18:35:52.776Z,6.51
2023-03-05T18:38:22.610Z,6.61
2023-03-05T18:40:53.247Z,6.22
2023-03-05T18:43:21.701Z,5.85
2023-03-05T18:45:54.160Z,6.07
2023-03-05T18:48:23.033Z,6.26
2023-03-05T18:50:52.223Z,5.86
2023-03-05T18:53:20.912Z,6.22
2023-03-05T18:55:51.286Z,6.11
2023-03-05T18:58:19.774Z,6.15
2023-03-05T19:00:48.378Z,6.43
2023-03-05T19:03:20.600Z,6.60
2023-03-05T19:05:51.365Z,6.24
2023-03-05T19:08:19.539Z,6.95
2023-03-05T19:10:47.734Z,6.89
2023-03-05T19:13:43.941Z,7.66
2023-03-05T19:16:17.100Z,7.28
2023-03-05T19:19:23.030Z,7.01
2023-03-05T19:21:56.480Z,6.76
2023-03-05T19:24:25.603Z,6.91
2023-03-05T19:26:56.121Z,6.66
2023-03-05T19:29:25.014Z,7.19
2023-03-05T19:31:53.678Z,6.29
2023-03-05T19:34:21.767Z,6.38
2023-03-05T19:36:49.810Z,6.55
2023-03-05T19:39:20.917Z,6.76
2023-03-05T19:41:49.262Z,7.02
2023-03-05T19:44:19.517Z,7.29
2023-03-05T19:46:48.638Z,8.06
2023-03-05T19:49:17.112Z,8.71
2023-03-05T19:51:45.521Z,8.17
2023-03-05T19:54:15.558Z,8.62
2023-03-05T19:56:44.431Z,8.92
2023-03-05T19:59:16.505Z,8.56
2023-03-05T20:01:45.657Z,9.09
2023-03-05T20:04:15.988Z,9.75
2023-03-05T20:06:43.997Z,9.21
2023-03-05T20:09:12.368Z,9.95
2023-03-05T20:11:40.552Z,10.73
2023-03-05T20:14:09.432Z,10.40
2023-03-05T20:16:38.046Z,10.30
2023-03-05T20:19:07.239Z,10.28
2023-03-05T20:21:38.833Z,10.23
2023-03-05T20:24:09.906Z,9.95
2023-03-05T20:26:39.215Z,9.37
2023-03-05T20:29:07.595Z,9.59
2023-03-05T20:31:37.300Z,9.50
2023-03-05T20:34:10.171Z,10.85
2023-03-05T20:36:38.473Z,11.32
2023-03-05T20:39:06.827Z,10.26
2023-03-05T20:41:36.156Z,10.78
2023-03-05T20:44:05.000Z,10.67
2023-03-05T20:46:59.765Z,9.42
2023-03-05T20:49:38.151Z,8.91
2023-03-05T20:52:06.347Z,9.02
2023-03-05T20:54:34.551Z,8.97
2023-03-05T20:57:02.704Z,9.20
2023-03-05T20:59:30.863Z,10.09
2023-03-05T21:01:59.449Z,10.61
2023-03-05T21:04:27.614Z,9.64
2023-03-05T21:06:55.663Z,10.21
2023-03-05T21:09:23.723Z,9.65
2023-03-05T21:11:51.747Z,10.52
2023-03-05T21:14:19.907Z,10.43
2023-03-05T21:16:48.384Z,11.27
2023-03-05T21:19:16.486Z,11.54
2023-03-05T21:21:45.858Z,12.34
2023-03-05T21:24:58.988Z,11.11
2023-03-05T21:27:35.286Z,9.55
2023-03-05T21:30:03.669Z,9.19
2023-03-05T21:32:31.900Z,9.29
2023-03-05T21:35:00.458Z,9.95
2023-03-05T21:37:28.591Z,9.35
2023-03-05T21:39:56.707Z,10.07
2023-03-05T21:42:24.809Z,10.40
2023-03-05T21:44:52.837Z,10.53
2023-03-05T21:47:20.939Z,9.90
2023-03-05T21:49:48.976Z,10.88
2023-03-05T21:52:17.142Z,10.34
2023-03-05T21:54:45.563Z,11.11
2023-03-05T21:57:13.741Z,12.63
2023-03-05T21:59:43.603Z,12.82
2023-03-05T22:02:12.440Z,13.18
2023-03-05T22:04:40.607Z,13.55
2023-03-05T22:07:08.642Z,12.92
2023-03-05T22:09:36.730Z,12.59
2023-03-05T22:12:43.233Z,12.25
2023-03-05T22:15:11.710Z,12.11
2023-03-05T22:17:39.685Z,11.30
2023-03-05T22:20:08.553Z,10.77
2023-03-05T22:22:36.743Z,11.44
2023-03-05T22:25:05.436Z,11.00
2023-03-05T22:27:33.513Z,11.65
2023-03-05T22:30:01.616Z,10.81
2023-03-05T22:32:34.208Z,10.72
2023-03-05T22:35:02.445Z,11.20
2023-03-05T22:37:30.911Z,10.73
2023-03-05T22:39:58.973Z,9.92
2023-03-05T22:42:27.260Z,10.00
2023-03-05T22:44:58.499Z,10.32
2023-03-05T22:47:27.798Z,10.27
2023-03-05T22:49:55.767Z,8.92
2023-03-05T22:52:24.699Z,8.91
2023-03-05T22:54:55.032Z,8.74
2023-03-05T22:57:24.073Z,8.18
2023-03-05T22:59:52.471Z,8.84
2023-03-05T23:02:20.751Z,10.78
2023-03-05T23:04:49.790Z,11.74
2023-03-05T23:07:22.606Z,11.91
2023-03-05T23:09:55.461Z,13.08
2023-03-05T23:12:24.188Z,12.94
2023-03-05T23:14:52.285Z,13.86
2023-03-05T23:17:20.293Z,15.07
2023-03-05T23:19:48.287Z,15.35
2023-03-05T23:22:16.601Z,16.54
2023-03-05T23:24:44.636Z,16.47
2023-03-05T23:27:14.567Z,17.20
2023-03-05T23:30:17.155Z,16.73
2023-03-05T23:32:47.257Z,17.28
2023-03-05T23:35:17.551Z,17.59
2023-03-05T23:37:45.779Z,18.56
2023-03-05T23:40:19.782Z,18.57
2023-03-05T23:42:48.387Z,18.49
2023-03-05T23:45:17.890Z,18.63
2023-03-05T23:47:46.464Z,17.71
2023-03-05T23:50:19.388Z,17.95
2023-03-05T23:52:48.038Z,18.08
2023-03-05T23:55:21.422Z,18.01
2023-03-05T23:57:49.500Z,17.78
